CheckWX is a tool to help pilots better visualize weather data.  It is not intended as a substitute for an official pre-flight weather briefing.

16:18:41 UTC

KPTW METAR
Heritage Field Airport
Pottstown, Pennsylvania, USA
Current

25 mins ago

KPTW 221554Z AUTO 20008KT 9SM BKN034 30/22 A2984 RMK AO2 SLP098 T03000217
Observed
Jul-22 @ 15:54 UTC
Wind
  • 200° at 8 KTS
Visibility
9 SM
Flight Rules
VFR
Cloud Levels
  • Broken at 3,400' AGL
Temperature
30°C / 86°F
Dewpoint
22°C / 72°F
Heat Index
33°C / 92°F
Humidity
62%
Altimeter
29.84" Hg
Pressure
1010.52 hPa
Previous

1 hour ago

KPTW 221454Z AUTO 00000KT 10SM CLR 28/23 A2985 RMK AO2 SLP102 T02830228 58013
Observed
Jul-22 @ 14:54 UTC
Visibility
10 SM
Flight Rules
VFR
Cloud Levels
  • Clear skies
Temperature
28°C / 82°F
Dewpoint
23°C / 73°F
Heat Index
31°C / 87°F
Humidity
74%
Altimeter
29.85" Hg
Pressure
1010.82 hPa
Previous

2 hours ago

KPTW 221354Z AUTO 07003KT 10SM CLR 27/22 A2986 RMK AO2 SLP107 T02670217
Observed
Jul-22 @ 13:54 UTC
Wind
  • 070° at 3 KTS
Visibility
10 SM
Flight Rules
VFR
Cloud Levels
  • Clear skies
Temperature
27°C / 81°F
Dewpoint
22°C / 72°F
Heat Index
29°C / 85°F
Humidity
74%
Altimeter
29.86" Hg
Pressure
1011.22 hPa